sensor_id;sensor_type;location;lat;lon;timestamp;P1;durP1;ratioP1;P2;durP2;ratioP2
43877;SDS011;29815;48.184;11.268;2022-08-16T01:18:52;1.92;;;1.17;;
43877;SDS011;29815;48.184;11.268;2022-08-16T01:21:31;2.97;;;0.90;;
43877;SDS011;29815;48.184;11.268;2022-08-16T01:24:44;1.63;;;1.30;;
43877;SDS011;29815;48.184;11.268;2022-08-16T01:27:24;1.27;;;1.02;;
43877;SDS011;29815;48.184;11.268;2022-08-16T01:30:03;1.70;;;0.90;;
43877;SDS011;29815;48.184;11.268;2022-08-16T01:32:51;2.30;;;1.10;;
43877;SDS011;29815;48.184;11.268;2022-08-16T01:35:42;2.88;;;1.20;;
43877;SDS011;29815;48.184;11.268;2022-08-16T01:38:21;1.35;;;1.08;;
43877;SDS011;29815;48.184;11.268;2022-08-16T01:41:01;1.63;;;1.10;;
43877;SDS011;29815;48.184;11.268;2022-08-16T01:43:36;1.75;;;0.80;;
43877;SDS011;29815;48.184;11.268;2022-08-16T01:46:16;1.42;;;1.10;;
43877;SDS011;29815;48.184;11.268;2022-08-16T01:49:10;1.63;;;1.20;;
43877;SDS011;29815;48.184;11.268;2022-08-16T01:51:46;1.80;;;1.10;;
43877;SDS011;29815;48.184;11.268;2022-08-16T01:54:30;1.52;;;1.00;;
43877;SDS011;29815;48.184;11.268;2022-08-16T01:57:05;1.67;;;1.35;;
43877;SDS011;29815;48.184;11.268;2022-08-16T01:59:39;1.88;;;1.25;;
43877;SDS011;29815;48.184;11.268;2022-08-16T02:02:13;2.30;;;1.20;;
43877;SDS011;29815;48.184;11.268;2022-08-16T02:04:55;1.90;;;1.37;;
43877;SDS011;29815;48.184;11.268;2022-08-16T02:07:26;1.77;;;1.20;;
43877;SDS011;29815;48.184;11.268;2022-08-16T02:09:57;1.77;;;1.48;;
43877;SDS011;29815;48.184;11.268;2022-08-16T02:12:40;2.47;;;1.10;;
43877;SDS011;29815;48.184;11.268;2022-08-16T02:15:24;1.52;;;1.30;;
43877;SDS011;29815;48.184;11.268;2022-08-16T02:18:02;1.67;;;1.00;;
43877;SDS011;29815;48.184;11.268;2022-08-16T02:20:40;1.38;;;1.00;;
43877;SDS011;29815;48.184;11.268;2022-08-16T02:23:16;1.60;;;1.38;;
43877;SDS011;29815;48.184;11.268;2022-08-16T02:25:45;1.90;;;1.20;;
43877;SDS011;29815;48.184;11.268;2022-08-16T02:28:23;2.03;;;1.27;;
43877;SDS011;29815;48.184;11.268;2022-08-16T02:30:54;2.35;;;1.40;;
43877;SDS011;29815;48.184;11.268;2022-08-16T02:33:28;3.17;;;1.35;;
43877;SDS011;29815;48.184;11.268;2022-08-16T02:36:28;1.13;;;1.00;;
43877;SDS011;29815;48.184;11.268;2022-08-16T02:39:18;3.03;;;1.55;;
43877;SDS011;29815;48.184;11.268;2022-08-16T02:41:50;1.55;;;1.33;;
43877;SDS011;29815;48.184;11.268;2022-08-16T02:44:24;1.90;;;1.63;;
43877;SDS011;29815;48.184;11.268;2022-08-16T02:46:55;2.42;;;1.25;;
43877;SDS011;29815;48.184;11.268;2022-08-16T02:49:27;1.63;;;1.48;;
43877;SDS011;29815;48.184;11.268;2022-08-16T02:52:17;1.25;;;1.00;;
43877;SDS011;29815;48.184;11.268;2022-08-16T02:54:54;1.50;;;1.38;;
43877;SDS011;29815;48.184;11.268;2022-08-16T02:57:24;1.48;;;1.10;;
43877;SDS011;29815;48.184;11.268;2022-08-16T02:59:56;2.80;;;1.33;;
43877;SDS011;29815;48.184;11.268;2022-08-16T03:02:28;2.53;;;1.40;;
43877;SDS011;29815;48.184;11.268;2022-08-16T03:05:04;3.20;;;1.00;;
43877;SDS011;29815;48.184;11.268;2022-08-16T03:07:38;2.20;;;1.23;;
43877;SDS011;29815;48.184;11.268;2022-08-16T03:10:17;2.70;;;1.45;;
43877;SDS011;29815;48.184;11.268;2022-08-16T03:12:59;1.52;;;1.27;;
43877;SDS011;29815;48.184;11.268;2022-08-16T03:15:40;1.67;;;1.35;;
43877;SDS011;29815;48.184;11.268;2022-08-16T03:18:10;2.03;;;1.40;;
43877;SDS011;29815;48.184;11.268;2022-08-16T03:21:00;1.65;;;1.50;;
43877;SDS011;29815;48.184;11.268;2022-08-16T03:23:31;3.00;;;1.48;;
43877;SDS011;29815;48.184;11.268;2022-08-16T03:26:04;3.03;;;1.75;;
43877;SDS011;29815;48.184;11.268;2022-08-16T03:28:34;3.50;;;1.80;;
43877;SDS011;29815;48.184;11.268;2022-08-16T03:31:06;1.85;;;1.35;;
43877;SDS011;29815;48.184;11.268;2022-08-16T03:33:41;1.77;;;1.27;;
43877;SDS011;29815;48.184;11.268;2022-08-16T03:36:11;3.90;;;1.63;;
43877;SDS011;29815;48.184;11.268;2022-08-16T03:39:02;2.17;;;1.70;;
43877;SDS011;29815;48.184;11.268;2022-08-16T03:41:41;2.78;;;1.58;;
43877;SDS011;29815;48.184;11.268;2022-08-16T03:44:19;2.28;;;1.50;;
43877;SDS011;29815;48.184;11.268;2022-08-16T03:47:11;2.38;;;1.55;;
43877;SDS011;29815;48.184;11.268;2022-08-16T03:49:47;1.80;;;1.50;;
43877;SDS011;29815;48.184;11.268;2022-08-16T03:52:19;3.00;;;2.17;;
43877;SDS011;29815;48.184;11.268;2022-08-16T03:54:59;3.17;;;1.50;;
43877;SDS011;29815;48.184;11.268;2022-08-16T03:57:30;1.95;;;1.65;;
43877;SDS011;29815;48.184;11.268;2022-08-16T04:00:06;2.42;;;1.50;;
43877;SDS011;29815;48.184;11.268;2022-08-16T04:03:05;2.83;;;2.03;;
43877;SDS011;29815;48.184;11.268;2022-08-16T04:05:40;2.35;;;1.58;;
43877;SDS011;29815;48.184;11.268;2022-08-16T04:08:15;1.85;;;1.67;;
43877;SDS011;29815;48.184;11.268;2022-08-16T04:10:53;2.65;;;2.00;;
43877;SDS011;29815;48.184;11.268;2022-08-16T04:13:26;1.60;;;1.45;;
43877;SDS011;29815;48.184;11.268;2022-08-16T04:16:18;2.70;;;1.70;;
43877;SDS011;29815;48.184;11.268;2022-08-16T04:19:01;1.98;;;1.65;;
43877;SDS011;29815;48.184;11.268;2022-08-16T04:21:32;2.17;;;1.88;;
43877;SDS011;29815;48.184;11.268;2022-08-16T04:24:14;2.25;;;1.77;;
43877;SDS011;29815;48.184;11.268;2022-08-16T04:26:44;1.90;;;1.25;;
43877;SDS011;29815;48.184;11.268;2022-08-16T04:29:15;2.28;;;1.80;;
43877;SDS011;29815;48.184;11.268;2022-08-16T04:31:52;2.17;;;1.70;;
43877;SDS011;29815;48.184;11.268;2022-08-16T04:34:31;2.13;;;1.77;;
43877;SDS011;29815;48.184;11.268;2022-08-16T04:37:07;2.40;;;1.70;;
43877;SDS011;29815;48.184;11.268;2022-08-16T04:39:41;2.28;;;1.55;;
43877;SDS011;29815;48.184;11.268;2022-08-16T04:42:23;1.98;;;1.55;;
43877;SDS011;29815;48.184;11.268;2022-08-16T04:44:57;4.00;;;1.98;;
43877;SDS011;29815;48.184;11.268;2022-08-16T04:47:32;2.47;;;1.83;;
43877;SDS011;29815;48.184;11.268;2022-08-16T04:50:10;2.67;;;1.77;;
43877;SDS011;29815;48.184;11.268;2022-08-16T04:52:57;2.25;;;1.85;;
43877;SDS011;29815;48.184;11.268;2022-08-16T04:55:30;2.00;;;1.63;;
43877;SDS011;29815;48.184;11.268;2022-08-16T04:58:06;2.30;;;1.85;;
43877;SDS011;29815;48.184;11.268;2022-08-16T05:00:58;2.08;;;1.60;;
43877;SDS011;29815;48.184;11.268;2022-08-16T05:03:30;2.28;;;1.35;;
43877;SDS011;29815;48.184;11.268;2022-08-16T05:06:09;2.55;;;1.83;;
43877;SDS011;29815;48.184;11.268;2022-08-16T05:08:40;1.90;;;1.23;;
43877;SDS011;29815;48.184;11.268;2022-08-16T05:11:20;2.15;;;1.40;;
43877;SDS011;29815;48.184;11.268;2022-08-16T05:13:58;2.15;;;1.73;;
43877;SDS011;29815;48.184;11.268;2022-08-16T05:16:35;2.10;;;1.30;;
43877;SDS011;29815;48.184;11.268;2022-08-16T05:19:08;3.08;;;1.60;;
43877;SDS011;29815;48.184;11.268;2022-08-16T05:22:04;2.30;;;1.40;;
43877;SDS011;29815;48.184;11.268;2022-08-16T05:24:44;2.47;;;1.60;;
43877;SDS011;29815;48.184;11.268;2022-08-16T05:27:21;2.70;;;1.42;;
43877;SDS011;29815;48.184;11.268;2022-08-16T05:29:53;1.77;;;1.50;;
43877;SDS011;29815;48.184;11.268;2022-08-16T05:32:31;2.20;;;1.27;;
43877;SDS011;29815;48.184;11.268;2022-08-16T05:35:14;1.80;;;1.52;;
43877;SDS011;29815;48.184;11.268;2022-08-16T05:37:59;1.63;;;1.38;;
43877;SDS011;29815;48.184;11.268;2022-08-16T05:40:49;2.25;;;1.65;;
43877;SDS011;29815;48.184;11.268;2022-08-16T05:43:28;2.20;;;1.35;;
43877;SDS011;29815;48.184;11.268;2022-08-16T05:46:10;3.60;;;1.40;;
43877;SDS011;29815;48.184;11.268;2022-08-16T05:49:02;2.50;;;1.35;;
43877;SDS011;29815;48.184;11.268;2022-08-16T05:51:37;2.22;;;1.73;;
43877;SDS011;29815;48.184;11.268;2022-08-16T05:54:12;2.33;;;1.60;;
43877;SDS011;29815;48.184;11.268;2022-08-16T05:56:54;1.88;;;1.33;;
43877;SDS011;29815;48.184;11.268;2022-08-16T05:59:27;2.40;;;1.63;;
43877;SDS011;29815;48.184;11.268;2022-08-16T06:01:57;2.15;;;1.35;;
43877;SDS011;29815;48.184;11.268;2022-08-16T06:04:31;2.63;;;1.42;;
43877;SDS011;29815;48.184;11.268;2022-08-16T06:07:12;2.50;;;1.75;;
43877;SDS011;29815;48.184;11.268;2022-08-16T06:10:02;2.42;;;1.52;;
43877;SDS011;29815;48.184;11.268;2022-08-16T06:12:37;1.67;;;1.33;;
43877;SDS011;29815;48.184;11.268;2022-08-16T06:15:09;2.20;;;1.70;;
43877;SDS011;29815;48.184;11.268;2022-08-16T06:17:44;2.10;;;1.38;;
43877;SDS011;29815;48.184;11.268;2022-08-16T06:20:22;3.05;;;1.45;;
43877;SDS011;29815;48.184;11.268;2022-08-16T06:23:08;1.95;;;1.40;;
43877;SDS011;29815;48.184;11.268;2022-08-16T06:25:58;1.83;;;1.60;;
43877;SDS011;29815;48.184;11.268;2022-08-16T06:28:32;2.40;;;1.60;;
43877;SDS011;29815;48.184;11.268;2022-08-16T06:31:08;4.88;;;1.70;;
43877;SDS011;29815;48.184;11.268;2022-08-16T06:33:43;2.55;;;1.50;;
43877;SDS011;29815;48.184;11.268;2022-08-16T06:36:15;1.60;;;1.50;;
43877;SDS011;29815;48.184;11.268;2022-08-16T06:38:56;3.22;;;2.00;;
43877;SDS011;29815;48.184;11.268;2022-08-16T06:41:46;2.05;;;1.70;;
43877;SDS011;29815;48.184;11.268;2022-08-16T06:44:25;3.25;;;1.90;;
43877;SDS011;29815;48.184;11.268;2022-08-16T06:46:59;3.35;;;2.00;;
43877;SDS011;29815;48.184;11.268;2022-08-16T06:49:29;6.30;;;1.80;;
43877;SDS011;29815;48.184;11.268;2022-08-16T06:52:01;2.75;;;1.83;;
43877;SDS011;29815;48.184;11.268;2022-08-16T06:54:36;3.33;;;1.60;;
43877;SDS011;29815;48.184;11.268;2022-08-16T06:57:14;1.85;;;1.73;;
43877;SDS011;29815;48.184;11.268;2022-08-16T06:59:47;1.98;;;1.75;;
43877;SDS011;29815;48.184;11.268;2022-08-16T07:02:31;2.22;;;1.75;;
43877;SDS011;29815;48.184;11.268;2022-08-16T07:05:04;2.05;;;1.70;;
43877;SDS011;29815;48.184;11.268;2022-08-16T07:07:46;3.05;;;1.90;;
43877;SDS011;29815;48.184;11.268;2022-08-16T07:10:21;2.97;;;1.80;;
43877;SDS011;29815;48.184;11.268;2022-08-16T07:12:55;4.63;;;2.20;;
43877;SDS011;29815;48.184;11.268;2022-08-16T07:15:40;3.65;;;1.85;;
43877;SDS011;29815;48.184;11.268;2022-08-16T07:18:18;2.17;;;1.88;;
43877;SDS011;29815;48.184;11.268;2022-08-16T07:20:52;2.78;;;2.08;;
43877;SDS011;29815;48.184;11.268;2022-08-16T07:23:30;5.03;;;2.33;;
43877;SDS011;29815;48.184;11.268;2022-08-16T07:26:09;2.42;;;1.98;;
43877;SDS011;29815;48.184;11.268;2022-08-16T07:28:52;2.45;;;1.88;;
43877;SDS011;29815;48.184;11.268;2022-08-16T07:31:22;2.28;;;1.90;;
43877;SDS011;29815;48.184;11.268;2022-08-16T07:34:05;2.45;;;2.13;;
43877;SDS011;29815;48.184;11.268;2022-08-16T07:36:36;3.15;;;2.40;;
43877;SDS011;29815;48.184;11.268;2022-08-16T07:39:11;4.55;;;2.17;;
43877;SDS011;29815;48.184;11.268;2022-08-16T07:41:44;3.50;;;2.33;;
43877;SDS011;29815;48.184;11.268;2022-08-16T07:44:15;3.78;;;2.20;;
43877;SDS011;29815;48.184;11.268;2022-08-16T07:46:47;2.22;;;1.90;;
43877;SDS011;29815;48.184;11.268;2022-08-16T07:49:22;3.58;;;2.58;;
43877;SDS011;29815;48.184;11.268;2022-08-16T07:51:59;3.83;;;2.70;;
43877;SDS011;29815;48.184;11.268;2022-08-16T07:54:45;4.18;;;2.30;;
43877;SDS011;29815;48.184;11.268;2022-08-16T07:57:19;4.50;;;2.72;;
43877;SDS011;29815;48.184;11.268;2022-08-16T07:59:53;3.80;;;2.70;;
43877;SDS011;29815;48.184;11.268;2022-08-16T08:02:25;4.85;;;2.72;;
43877;SDS011;29815;48.184;11.268;2022-08-16T08:04:57;4.63;;;2.85;;
43877;SDS011;29815;48.184;11.268;2022-08-16T08:10:03;5.78;;;2.88;;
43877;SDS011;29815;48.184;11.268;2022-08-16T08:12:38;3.08;;;2.78;;
43877;SDS011;29815;48.184;11.268;2022-08-16T08:15:13;3.92;;;2.55;;
43877;SDS011;29815;48.184;11.268;2022-08-16T08:17:53;3.50;;;3.17;;
43877;SDS011;29815;48.184;11.268;2022-08-16T08:20:44;6.00;;;3.55;;
43877;SDS011;29815;48.184;11.268;2022-08-16T08:23:26;5.90;;;3.50;;
43877;SDS011;29815;48.184;11.268;2022-08-16T08:25:55;4.82;;;3.28;;
43877;SDS011;29815;48.184;11.268;2022-08-16T08:28:27;4.60;;;3.90;;
43877;SDS011;29815;48.184;11.268;2022-08-16T08:31:03;5.18;;;3.20;;
43877;SDS011;29815;48.184;11.268;2022-08-16T08:33:37;3.25;;;2.92;;
43877;SDS011;29815;48.184;11.268;2022-08-16T08:36:13;4.40;;;3.03;;
43877;SDS011;29815;48.184;11.268;2022-08-16T08:39:04;5.63;;;3.20;;
43877;SDS011;29815;48.184;11.268;2022-08-16T08:41:41;3.28;;;2.95;;
43877;SDS011;29815;48.184;11.268;2022-08-16T08:44:16;4.53;;;2.58;;
43877;SDS011;29815;48.184;11.268;2022-08-16T08:46:59;4.75;;;3.03;;
43877;SDS011;29815;48.184;11.268;2022-08-16T08:49:38;3.35;;;2.70;;
43877;SDS011;29815;48.184;11.268;2022-08-16T08:52:14;5.97;;;2.65;;
43877;SDS011;29815;48.184;11.268;2022-08-16T08:55:04;2.95;;;2.63;;
43877;SDS011;29815;48.184;11.268;2022-08-16T08:57:42;7.22;;;3.10;;
43877;SDS011;29815;48.184;11.268;2022-08-16T09:03:20;4.80;;;2.88;;
43877;SDS011;29815;48.184;11.268;2022-08-16T09:05:54;3.60;;;2.97;;
43877;SDS011;29815;48.184;11.268;2022-08-16T09:08:24;3.75;;;3.03;;
43877;SDS011;29815;48.184;11.268;2022-08-16T09:10:59;7.00;;;3.30;;
43877;SDS011;29815;48.184;11.268;2022-08-16T09:13:31;3.93;;;3.10;;
43877;SDS011;29815;48.184;11.268;2022-08-16T09:16:02;3.60;;;2.67;;
43877;SDS011;29815;48.184;11.268;2022-08-16T09:21:06;3.97;;;2.90;;
43877;SDS011;29815;48.184;11.268;2022-08-16T09:23:36;4.55;;;3.15;;
43877;SDS011;29815;48.184;11.268;2022-08-16T09:26:10;3.65;;;2.72;;
43877;SDS011;29815;48.184;11.268;2022-08-16T09:29:03;4.10;;;3.15;;
43877;SDS011;29815;48.184;11.268;2022-08-16T09:31:42;3.03;;;2.55;;
43877;SDS011;29815;48.184;11.268;2022-08-16T09:34:21;6.82;;;3.15;;
43877;SDS011;29815;48.184;11.268;2022-08-16T09:36:52;4.25;;;2.70;;
43877;SDS011;29815;48.184;11.268;2022-08-16T09:39:26;8.32;;;3.45;;
43877;SDS011;29815;48.184;11.268;2022-08-16T09:42:08;4.35;;;3.10;;
43877;SDS011;29815;48.184;11.268;2022-08-16T09:44:41;5.18;;;3.95;;
43877;SDS011;29815;48.184;11.268;2022-08-16T09:47:31;3.90;;;2.88;;
43877;SDS011;29815;48.184;11.268;2022-08-16T09:50:25;3.55;;;2.88;;
43877;SDS011;29815;48.184;11.268;2022-08-16T09:55:44;7.00;;;3.78;;
43877;SDS011;29815;48.184;11.268;2022-08-16T09:58:17;4.25;;;2.75;;
43877;SDS011;29815;48.184;11.268;2022-08-16T10:01:08;3.22;;;2.47;;
43877;SDS011;29815;48.184;11.268;2022-08-16T10:03:38;4.88;;;3.00;;
43877;SDS011;29815;48.184;11.268;2022-08-16T10:06:29;5.80;;;2.95;;
43877;SDS011;29815;48.184;11.268;2022-08-16T10:09:00;3.80;;;3.00;;
43877;SDS011;29815;48.184;11.268;2022-08-16T10:11:36;3.40;;;2.85;;
43877;SDS011;29815;48.184;11.268;2022-08-16T10:14:44;4.35;;;3.25;;
43877;SDS011;29815;48.184;11.268;2022-08-16T10:17:14;4.97;;;2.63;;
43877;SDS011;29815;48.184;11.268;2022-08-16T10:19:44;3.25;;;2.67;;
43877;SDS011;29815;48.184;11.268;2022-08-16T10:22:18;4.45;;;2.63;;
43877;SDS011;29815;48.184;11.268;2022-08-16T10:24:50;5.20;;;2.83;;
43877;SDS011;29815;48.184;11.268;2022-08-16T10:27:26;3.83;;;2.92;;
43877;SDS011;29815;48.184;11.268;2022-08-16T10:30:13;4.68;;;2.80;;
43877;SDS011;29815;48.184;11.268;2022-08-16T10:32:52;4.00;;;2.63;;
43877;SDS011;29815;48.184;11.268;2022-08-16T10:35:22;3.63;;;2.60;;
43877;SDS011;29815;48.184;11.268;2022-08-16T10:38:00;4.70;;;2.60;;
43877;SDS011;29815;48.184;11.268;2022-08-16T10:40:36;3.72;;;2.63;;
43877;SDS011;29815;48.184;11.268;2022-08-16T10:43:11;3.53;;;2.67;;
43877;SDS011;29815;48.184;11.268;2022-08-16T10:45:45;3.72;;;2.65;;
43877;SDS011;29815;48.184;11.268;2022-08-16T10:50:57;5.13;;;2.90;;
43877;SDS011;29815;48.184;11.268;2022-08-16T10:53:29;3.78;;;2.30;;
43877;SDS011;29815;48.184;11.268;2022-08-16T10:56:00;4.00;;;2.70;;
43877;SDS011;29815;48.184;11.268;2022-08-16T10:58:55;4.97;;;2.60;;
43877;SDS011;29815;48.184;11.268;2022-08-16T11:01:46;3.72;;;2.60;;
43877;SDS011;29815;48.184;11.268;2022-08-16T11:04:35;2.63;;;2.42;;
43877;SDS011;29815;48.184;11.268;2022-08-16T11:07:26;3.38;;;2.65;;
43877;SDS011;29815;48.184;11.268;2022-08-16T11:10:17;6.93;;;2.50;;
43877;SDS011;29815;48.184;11.268;2022-08-16T11:13:14;3.75;;;2.25;;
43877;SDS011;29815;48.184;11.268;2022-08-16T11:16:07;3.90;;;2.75;;
43877;SDS011;29815;48.184;11.268;2022-08-16T11:18:57;3.53;;;2.60;;
43877;SDS011;29815;48.184;11.268;2022-08-16T11:21:33;4.68;;;2.40;;
43877;SDS011;29815;48.184;11.268;2022-08-16T11:24:23;2.47;;;2.15;;
43877;SDS011;29815;48.184;11.268;2022-08-16T11:27:12;3.90;;;2.72;;
43877;SDS011;29815;48.184;11.268;2022-08-16T11:29:50;3.90;;;3.05;;
43877;SDS011;29815;48.184;11.268;2022-08-16T11:32:23;3.10;;;2.60;;
43877;SDS011;29815;48.184;11.268;2022-08-16T11:35:01;3.50;;;2.75;;
43877;SDS011;29815;48.184;11.268;2022-08-16T11:37:43;5.90;;;2.47;;
43877;SDS011;29815;48.184;11.268;2022-08-16T11:40:37;4.05;;;2.40;;
43877;SDS011;29815;48.184;11.268;2022-08-16T11:43:21;3.58;;;2.70;;
43877;SDS011;29815;48.184;11.268;2022-08-16T11:45:54;4.72;;;2.60;;
43877;SDS011;29815;48.184;11.268;2022-08-16T11:48:47;2.63;;;2.17;;
43877;SDS011;29815;48.184;11.268;2022-08-16T11:51:18;3.58;;;2.28;;
43877;SDS011;29815;48.184;11.268;2022-08-16T11:53:47;5.32;;;2.42;;
43877;SDS011;29815;48.184;11.268;2022-08-16T11:56:18;3.92;;;2.15;;
43877;SDS011;29815;48.184;11.268;2022-08-16T11:59:09;3.08;;;2.30;;
43877;SDS011;29815;48.184;11.268;2022-08-16T12:01:42;3.40;;;2.40;;
43877;SDS011;29815;48.184;11.268;2022-08-16T12:04:26;4.70;;;2.42;;
43877;SDS011;29815;48.184;11.268;2022-08-16T12:06:56;4.40;;;2.35;;
43877;SDS011;29815;48.184;11.268;2022-08-16T12:09:27;3.50;;;2.92;;
43877;SDS011;29815;48.184;11.268;2022-08-16T12:11:58;4.35;;;2.33;;
43877;SDS011;29815;48.184;11.268;2022-08-16T12:14:31;3.28;;;2.30;;
43877;SDS011;29815;48.184;11.268;2022-08-16T12:17:05;3.63;;;2.40;;
43877;SDS011;29815;48.184;11.268;2022-08-16T12:19:36;4.00;;;2.38;;
43877;SDS011;29815;48.184;11.268;2022-08-16T12:22:06;1.92;;;1.73;;
43877;SDS011;29815;48.184;11.268;2022-08-16T12:24:46;3.53;;;2.30;;
43877;SDS011;29815;48.184;11.268;2022-08-16T12:27:19;4.25;;;2.50;;
43877;SDS011;29815;48.184;11.268;2022-08-16T12:30:01;4.07;;;2.38;;
43877;SDS011;29815;48.184;11.268;2022-08-16T12:32:47;2.88;;;2.17;;
43877;SDS011;29815;48.184;11.268;2022-08-16T12:35:21;3.42;;;2.30;;
43877;SDS011;29815;48.184;11.268;2022-08-16T12:37:52;2.95;;;2.42;;
43877;SDS011;29815;48.184;11.268;2022-08-16T12:40:24;2.80;;;2.42;;
43877;SDS011;29815;48.184;11.268;2022-08-16T12:43:00;5.18;;;2.75;;
43877;SDS011;29815;48.184;11.268;2022-08-16T12:45:33;5.07;;;2.67;;
43877;SDS011;29815;48.184;11.268;2022-08-16T12:48:10;2.85;;;2.55;;
43877;SDS011;29815;48.184;11.268;2022-08-16T12:51:02;3.45;;;2.35;;
43877;SDS011;29815;48.184;11.268;2022-08-16T12:53:46;2.70;;;2.50;;
43877;SDS011;29815;48.184;11.268;2022-08-16T12:56:18;4.57;;;2.35;;
43877;SDS011;29815;48.184;11.268;2022-08-16T12:58:55;3.90;;;2.17;;
43877;SDS011;29815;48.184;11.268;2022-08-16T13:01:29;5.30;;;2.85;;
43877;SDS011;29815;48.184;11.268;2022-08-16T13:04:02;2.97;;;2.38;;
43877;SDS011;29815;48.184;11.268;2022-08-16T13:06:45;3.50;;;2.50;;
43877;SDS011;29815;48.184;11.268;2022-08-16T13:09:19;3.38;;;2.17;;
43877;SDS011;29815;48.184;11.268;2022-08-16T13:11:55;3.03;;;2.33;;
43877;SDS011;29815;48.184;11.268;2022-08-16T13:14:33;3.15;;;2.42;;
43877;SDS011;29815;48.184;11.268;2022-08-16T13:17:10;3.30;;;2.60;;
43877;SDS011;29815;48.184;11.268;2022-08-16T13:19:49;2.80;;;2.40;;
43877;SDS011;29815;48.184;11.268;2022-08-16T13:22:40;5.00;;;2.80;;
43877;SDS011;29815;48.184;11.268;2022-08-16T13:25:14;5.30;;;2.60;;
43877;SDS011;29815;48.184;11.268;2022-08-16T13:27:50;3.28;;;2.55;;
43877;SDS011;29815;48.184;11.268;2022-08-16T13:30:43;2.83;;;2.50;;
43877;SDS011;29815;48.184;11.268;2022-08-16T13:33:20;4.82;;;2.60;;
43877;SDS011;29815;48.184;11.268;2022-08-16T13:35:58;5.80;;;2.72;;
43877;SDS011;29815;48.184;11.268;2022-08-16T13:38:29;3.70;;;2.10;;
43877;SDS011;29815;48.184;11.268;2022-08-16T13:41:04;7.68;;;2.72;;
43877;SDS011;29815;48.184;11.268;2022-08-16T13:43:37;4.40;;;2.72;;
43877;SDS011;29815;48.184;11.268;2022-08-16T13:46:09;4.28;;;2.63;;
43877;SDS011;29815;48.184;11.268;2022-08-16T13:48:40;2.80;;;2.50;;
43877;SDS011;29815;48.184;11.268;2022-08-16T13:51:12;3.90;;;2.63;;
43877;SDS011;29815;48.184;11.268;2022-08-16T13:53:45;5.07;;;2.47;;
43877;SDS011;29815;48.184;11.268;2022-08-16T13:56:29;10.95;;;3.50;;
43877;SDS011;29815;48.184;11.268;2022-08-16T13:59:06;4.60;;;2.60;;
43877;SDS011;29815;48.184;11.268;2022-08-16T14:01:47;3.93;;;3.00;;
43877;SDS011;29815;48.184;11.268;2022-08-16T14:04:24;5.25;;;2.85;;
43877;SDS011;29815;48.184;11.268;2022-08-16T14:07:23;7.82;;;3.17;;
43877;SDS011;29815;48.184;11.268;2022-08-16T14:09:55;4.68;;;2.88;;
43877;SDS011;29815;48.184;11.268;2022-08-16T14:12:26;3.63;;;2.92;;
43877;SDS011;29815;48.184;11.268;2022-08-16T14:14:59;2.65;;;2.38;;
43877;SDS011;29815;48.184;11.268;2022-08-16T14:17:30;9.23;;;3.20;;
43877;SDS011;29815;48.184;11.268;2022-08-16T14:20:21;4.40;;;3.13;;
43877;SDS011;29815;48.184;11.268;2022-08-16T14:22:52;4.50;;;2.83;;
43877;SDS011;29815;48.184;11.268;2022-08-16T14:25:23;4.72;;;2.30;;
43877;SDS011;29815;48.184;11.268;2022-08-16T14:27:55;6.43;;;3.35;;
43877;SDS011;29815;48.184;11.268;2022-08-16T14:30:24;2.85;;;2.50;;
43877;SDS011;29815;48.184;11.268;2022-08-16T14:32:54;5.15;;;2.85;;
43877;SDS011;29815;48.184;11.268;2022-08-16T14:35:27;4.13;;;2.60;;
43877;SDS011;29815;48.184;11.268;2022-08-16T14:38:17;5.95;;;3.00;;
43877;SDS011;29815;48.184;11.268;2022-08-16T14:40:50;5.00;;;2.38;;
43877;SDS011;29815;48.184;11.268;2022-08-16T14:43:22;4.32;;;2.70;;
43877;SDS011;29815;48.184;11.268;2022-08-16T14:45:56;4.10;;;2.40;;
43877;SDS011;29815;48.184;11.268;2022-08-16T14:48:26;5.40;;;2.55;;
43877;SDS011;29815;48.184;11.268;2022-08-16T14:50:56;3.72;;;2.72;;
43877;SDS011;29815;48.184;11.268;2022-08-16T14:53:27;5.35;;;3.30;;
43877;SDS011;29815;48.184;11.268;2022-08-16T14:58:28;6.10;;;2.63;;
43877;SDS011;29815;48.184;11.268;2022-08-16T15:01:04;3.13;;;2.25;;
43877;SDS011;29815;48.184;11.268;2022-08-16T15:03:36;3.78;;;2.40;;
43877;SDS011;29815;48.184;11.268;2022-08-16T15:06:12;5.40;;;2.42;;
43877;SDS011;29815;48.184;11.268;2022-08-16T15:08:42;5.00;;;2.35;;
43877;SDS011;29815;48.184;11.268;2022-08-16T15:11:12;6.15;;;2.97;;
43877;SDS011;29815;48.184;11.268;2022-08-16T15:13:44;2.72;;;2.15;;
43877;SDS011;29815;48.184;11.268;2022-08-16T15:16:13;5.30;;;2.83;;
43877;SDS011;29815;48.184;11.268;2022-08-16T15:18:44;4.60;;;2.63;;
43877;SDS011;29815;48.184;11.268;2022-08-16T15:21:16;2.67;;;2.47;;
43877;SDS011;29815;48.184;11.268;2022-08-16T15:23:47;7.50;;;2.50;;
43877;SDS011;29815;48.184;11.268;2022-08-16T15:26:20;5.07;;;2.42;;
43877;SDS011;29815;48.184;11.268;2022-08-16T15:29:10;3.53;;;2.53;;
43877;SDS011;29815;48.184;11.268;2022-08-16T15:31:41;3.63;;;2.45;;
43877;SDS011;29815;48.184;11.268;2022-08-16T15:34:14;3.65;;;2.25;;
43877;SDS011;29815;48.184;11.268;2022-08-16T15:36:53;5.78;;;2.75;;
43877;SDS011;29815;48.184;11.268;2022-08-16T15:39:24;4.70;;;2.28;;
43877;SDS011;29815;48.184;11.268;2022-08-16T15:42:06;3.85;;;2.53;;
43877;SDS011;29815;48.184;11.268;2022-08-16T15:44:54;3.08;;;2.50;;
43877;SDS011;29815;48.184;11.268;2022-08-16T15:47:25;4.57;;;2.70;;
43877;SDS011;29815;48.184;11.268;2022-08-16T15:49:55;2.72;;;2.15;;
43877;SDS011;29815;48.184;11.268;2022-08-16T15:52:27;4.25;;;2.50;;
43877;SDS011;29815;48.184;11.268;2022-08-16T15:55:00;3.78;;;3.15;;
43877;SDS011;29815;48.184;11.268;2022-08-16T15:57:54;5.30;;;3.13;;
43877;SDS011;29815;48.184;11.268;2022-08-16T16:00:24;4.05;;;2.75;;
43877;SDS011;29815;48.184;11.268;2022-08-16T16:03:02;4.72;;;2.97;;
43877;SDS011;29815;48.184;11.268;2022-08-16T16:05:38;4.90;;;2.90;;
43877;SDS011;29815;48.184;11.268;2022-08-16T16:08:14;3.42;;;2.67;;
43877;SDS011;29815;48.184;11.268;2022-08-16T16:10:51;4.55;;;2.60;;
43877;SDS011;29815;48.184;11.268;2022-08-16T16:13:24;5.13;;;2.70;;
43877;SDS011;29815;48.184;11.268;2022-08-16T16:48:02;4.93;;;3.47;;
43877;SDS011;29815;48.184;11.268;2022-08-16T18:00:20;4.32;;;2.70;;
43877;SDS011;29815;48.184;11.268;2022-08-16T18:20:34;5.03;;;3.08;;
43877;SDS011;29815;48.184;11.268;2022-08-16T18:54:15;8.70;;;4.25;;
43877;SDS011;29815;48.184;11.268;2022-08-16T19:07:22;6.43;;;4.50;;
43877;SDS011;29815;48.184;11.268;2022-08-16T19:12:28;6.55;;;3.88;;
43877;SDS011;29815;48.184;11.268;2022-08-16T19:36:20;5.68;;;4.97;;
43877;SDS011;29815;48.184;11.268;2022-08-16T20:11:52;7.65;;;6.82;;
43877;SDS011;29815;48.184;11.268;2022-08-16T20:19:27;7.38;;;6.13;;
43877;SDS011;29815;48.184;11.268;2022-08-16T20:40:20;8.40;;;6.10;;
43877;SDS011;29815;48.184;11.268;2022-08-16T20:43:05;7.88;;;6.05;;
43877;SDS011;29815;48.184;11.268;2022-08-16T20:45:39;9.35;;;6.82;;
43877;SDS011;29815;48.184;11.268;2022-08-16T20:48:14;6.60;;;5.90;;
43877;SDS011;29815;48.184;11.268;2022-08-16T20:50:44;9.77;;;6.75;;
43877;SDS011;29815;48.184;11.268;2022-08-16T20:53:13;7.03;;;6.35;;
43877;SDS011;29815;48.184;11.268;2022-08-16T20:55:43;7.85;;;7.05;;
43877;SDS011;29815;48.184;11.268;2022-08-16T20:58:12;9.38;;;6.00;;
43877;SDS011;29815;48.184;11.268;2022-08-16T21:00:42;6.78;;;6.05;;
43877;SDS011;29815;48.184;11.268;2022-08-16T21:03:14;10.15;;;6.28;;
43877;SDS011;29815;48.184;11.268;2022-08-16T21:05:44;9.77;;;5.85;;
43877;SDS011;29815;48.184;11.268;2022-08-16T21:08:13;7.72;;;6.22;;